createdAt,value
2018-03-15T00:02:08.090Z,8.80
2018-03-15T00:04:36.945Z,8.90
2018-03-15T00:07:05.799Z,8.90
2018-03-15T00:09:34.714Z,9.20
2018-03-15T00:12:03.562Z,8.93
2018-03-15T00:14:32.393Z,9.57
2018-03-15T00:17:01.556Z,9.30
2018-03-15T00:19:30.407Z,9.43
2018-03-15T00:21:59.258Z,8.60
2018-03-15T00:24:29.564Z,9.07
2018-03-15T00:26:58.415Z,9.63
2018-03-15T00:29:27.449Z,9.10
2018-03-15T00:31:56.351Z,8.47
2018-03-15T00:34:25.185Z,9.27
2018-03-15T00:36:54.096Z,10.10
2018-03-15T00:39:22.942Z,9.70
2018-03-15T00:41:51.791Z,9.97
2018-03-15T00:44:20.695Z,10.50
2018-03-15T00:46:50.265Z,10.27
2018-03-15T00:49:19.141Z,9.83
2018-03-15T00:51:48.028Z,10.33
2018-03-15T00:54:16.978Z,10.37
2018-03-15T00:56:46.031Z,10.50
2018-03-15T00:59:14.894Z,10.33
2018-03-15T01:01:43.734Z,9.37
2018-03-15T01:04:12.851Z,9.87
2018-03-15T01:06:41.687Z,9.33
2018-03-15T01:09:10.595Z,10.07
2018-03-15T01:11:41.058Z,10.40
2018-03-15T01:14:09.902Z,9.27
2018-03-15T01:16:38.783Z,9.80
2018-03-15T01:19:08.847Z,9.77
2018-03-15T01:21:37.707Z,9.67
2018-03-15T01:24:06.568Z,10.30
2018-03-15T01:26:35.474Z,9.93
2018-03-15T01:29:04.325Z,10.57
2018-03-15T01:31:33.179Z,10.67
2018-03-15T01:34:02.102Z,10.27
2018-03-15T01:36:31.052Z,11.17
2018-03-15T01:38:59.905Z,10.13
2018-03-15T01:41:28.806Z,10.53
2018-03-15T01:43:57.681Z,10.00
2018-03-15T01:46:26.666Z,10.63
2018-03-15T01:48:56.387Z,11.50
2018-03-15T01:51:25.263Z,11.30
2018-03-15T01:53:54.118Z,11.23
2018-03-15T01:56:24.436Z,11.70
2018-03-15T01:58:53.283Z,11.73
2018-03-15T02:01:22.143Z,11.80
2018-03-15T02:03:51.034Z,12.17
2018-03-15T02:06:19.883Z,11.97
2018-03-15T02:08:49.036Z,11.90
2018-03-15T02:11:17.891Z,12.63
2018-03-15T02:13:49.273Z,11.53
2018-03-15T02:16:18.179Z,12.07
2018-03-15T02:18:47.035Z,12.60
2018-03-15T02:21:16.000Z,12.37
2018-03-15T02:23:44.975Z,12.43
2018-03-15T02:26:13.829Z,11.83
2018-03-15T02:28:42.686Z,12.60
2018-03-15T02:31:12.952Z,12.67
2018-03-15T02:33:41.830Z,13.67
2018-03-15T02:36:10.763Z,13.00
2018-03-15T02:38:39.931Z,14.13
2018-03-15T02:41:08.779Z,13.07
2018-03-15T02:43:37.644Z,13.30
2018-03-15T02:46:06.556Z,13.13
2018-03-15T02:48:35.912Z,14.30
2018-03-15T02:51:05.389Z,13.97
2018-03-15T02:53:34.308Z,13.10
2018-03-15T02:56:03.162Z,14.17
2018-03-15T02:58:32.063Z,14.00
2018-03-15T03:01:00.955Z,14.93
2018-03-15T03:03:29.802Z,13.80
2018-03-15T03:05:58.666Z,14.37
2018-03-15T03:08:31.712Z,14.07
2018-03-15T03:11:00.556Z,14.60
2018-03-15T03:13:30.746Z,13.97
2018-03-15T03:15:59.591Z,13.10
2018-03-15T03:18:28.440Z,13.83
2018-03-15T03:20:57.626Z,15.03
2018-03-15T03:23:26.662Z,14.83
2018-03-15T03:25:55.735Z,16.17
2018-03-15T03:28:24.628Z,16.40
2018-03-15T03:30:53.482Z,15.27
2018-03-15T03:33:22.336Z,16.33
2018-03-15T03:35:51.236Z,16.50
2018-03-15T03:38:20.097Z,15.77
2018-03-15T03:40:48.990Z,16.23
2018-03-15T03:43:18.160Z,16.40
2018-03-15T03:45:47.009Z,17.60
2018-03-15T03:48:17.277Z,17.77
2018-03-15T03:50:46.679Z,16.60
2018-03-15T03:53:16.581Z,18.33
2018-03-15T03:55:45.473Z,17.07
2018-03-15T03:58:14.329Z,17.47
2018-03-15T04:00:43.570Z,18.07
2018-03-15T04:03:12.427Z,19.37
2018-03-15T04:05:41.278Z,18.93
2018-03-15T04:08:11.274Z,19.10
2018-03-15T04:10:40.131Z,18.57
2018-03-15T04:13:09.006Z,19.47
2018-03-15T04:15:37.871Z,18.60
2018-03-15T04:18:06.786Z,20.23
2018-03-15T04:20:35.642Z,20.60
2018-03-15T04:23:04.533Z,20.47
2018-03-15T04:25:34.435Z,20.70
2018-03-15T04:28:03.290Z,21.73
2018-03-15T04:30:32.211Z,20.60
2018-03-15T04:33:01.134Z,20.23
2018-03-15T04:35:30.053Z,19.60
2018-03-15T04:37:59.745Z,20.90
2018-03-15T04:40:29.030Z,20.07
2018-03-15T04:42:57.895Z,21.67
2018-03-15T04:45:26.738Z,21.73
2018-03-15T04:47:55.898Z,21.20
2018-03-15T04:50:24.752Z,21.23
2018-03-15T04:52:53.599Z,20.93
2018-03-15T04:55:23.308Z,22.57
2018-03-15T04:57:52.271Z,22.87
2018-03-15T05:00:21.135Z,22.07
2018-03-15T05:02:51.040Z,21.83
2018-03-15T05:05:19.882Z,22.77
2018-03-15T05:07:48.739Z,23.40
2018-03-15T05:10:17.790Z,23.20
2018-03-15T05:12:46.656Z,22.47
2018-03-15T05:15:15.506Z,23.93
2018-03-15T05:17:44.722Z,23.00
2018-03-15T05:20:13.586Z,23.23
2018-03-15T05:22:42.451Z,23.13
2018-03-15T05:25:11.349Z,23.53
2018-03-15T05:27:40.216Z,22.37
2018-03-15T05:30:09.291Z,21.97
2018-03-15T05:32:38.154Z,22.77
2018-03-15T05:35:07.010Z,23.37
2018-03-15T05:37:35.919Z,23.83
2018-03-15T05:40:04.787Z,23.77
2018-03-15T05:42:33.630Z,24.73
2018-03-15T05:45:03.444Z,25.87
2018-03-15T05:47:32.310Z,25.33
2018-03-15T05:50:01.171Z,23.90
2018-03-15T05:52:30.094Z,25.97
2018-03-15T05:54:58.944Z,24.57
2018-03-15T05:57:28.407Z,25.03
2018-03-15T05:59:57.523Z,25.07
2018-03-15T06:02:26.370Z,25.57
2018-03-15T06:04:55.227Z,24.70
2018-03-15T06:07:24.090Z,24.70
2018-03-15T06:09:52.940Z,24.30
2018-03-15T06:12:22.075Z,24.47
2018-03-15T06:14:52.913Z,25.10
2018-03-15T06:17:21.775Z,24.00
2018-03-15T06:19:50.697Z,23.73
2018-03-15T06:22:19.555Z,24.57
2018-03-15T06:24:48.411Z,24.30
2018-03-15T06:27:17.424Z,24.50
2018-03-15T06:29:46.279Z,22.73
2018-03-15T06:32:15.140Z,24.53
2018-03-15T06:34:44.095Z,23.50
2018-03-15T06:37:12.958Z,24.20
2018-03-15T06:39:41.898Z,23.47
2018-03-15T06:42:10.818Z,23.57
2018-03-15T06:44:39.676Z,23.83
2018-03-15T06:47:08.530Z,22.70
2018-03-15T06:49:37.687Z,22.13
2018-03-15T06:52:06.580Z,22.33
2018-03-15T06:54:35.391Z,22.17
2018-03-15T06:57:04.267Z,22.00
2018-03-15T06:59:33.122Z,22.43
2018-03-15T07:02:02.350Z,21.03
2018-03-15T07:04:31.203Z,20.70
2018-03-15T07:07:00.056Z,21.53
2018-03-15T07:09:29.129Z,21.20
2018-03-15T07:11:57.976Z,20.17
2018-03-15T07:14:26.862Z,20.40
2018-03-15T07:16:56.522Z,21.10
2018-03-15T07:19:25.438Z,20.50
2018-03-15T07:21:54.955Z,19.67
2018-03-15T07:24:23.822Z,20.23
2018-03-15T07:26:52.788Z,20.40
2018-03-15T07:29:21.644Z,19.77
2018-03-15T07:31:50.500Z,18.90
2018-03-15T07:34:19.394Z,18.77
2018-03-15T07:36:48.242Z,18.67
2018-03-15T07:39:17.240Z,18.90
2018-03-15T07:41:46.680Z,19.07
2018-03-15T07:44:15.547Z,17.37
2018-03-15T07:46:44.394Z,17.80
2018-03-15T07:49:13.370Z,17.60
2018-03-15T07:51:42.251Z,17.40
2018-03-15T07:54:11.107Z,17.23
2018-03-15T07:56:40.210Z,17.63
2018-03-15T07:59:10.988Z,16.47
2018-03-15T08:01:39.839Z,16.90
2018-03-15T08:04:08.782Z,16.77
2018-03-15T08:06:37.685Z,16.33
2018-03-15T08:09:06.529Z,17.17
2018-03-15T08:11:35.727Z,15.57
2018-03-15T08:14:04.600Z,16.07
2018-03-15T08:16:33.461Z,15.47
2018-03-15T08:19:02.776Z,15.03
2018-03-15T08:21:31.595Z,14.70
2018-03-15T08:24:00.672Z,14.23
2018-03-15T08:26:29.739Z,14.40
2018-03-15T08:28:58.587Z,13.77
2018-03-15T08:31:27.516Z,13.97
2018-03-15T08:33:56.399Z,14.33
2018-03-15T08:36:25.247Z,14.33
2018-03-15T08:38:54.407Z,13.83
2018-03-15T08:41:23.250Z,12.97
2018-03-15T08:43:52.115Z,12.73
2018-03-15T08:46:21.079Z,12.80
2018-03-15T08:48:49.947Z,12.53
2018-03-15T08:51:19.384Z,12.30
2018-03-15T08:53:48.247Z,12.27
2018-03-15T08:56:17.722Z,11.97
2018-03-15T08:58:46.605Z,12.07
2018-03-15T09:01:15.535Z,12.90
2018-03-15T09:03:44.882Z,12.10
2018-03-15T09:06:13.993Z,11.03
2018-03-15T09:08:42.890Z,11.60
2018-03-15T09:11:11.715Z,11.20
2018-03-15T09:13:40.615Z,10.93
2018-03-15T09:16:11.591Z,10.93
2018-03-15T09:18:40.486Z,10.97
2018-03-15T09:21:10.587Z,11.50
2018-03-15T09:23:39.461Z,10.20
2018-03-15T09:26:08.278Z,10.97
2018-03-15T09:28:37.183Z,9.50
2018-03-15T09:31:06.129Z,10.97
2018-03-15T09:33:35.976Z,10.73
2018-03-15T09:36:05.235Z,10.63
2018-03-15T09:38:34.082Z,10.67
2018-03-15T09:41:02.950Z,9.67
2018-03-15T09:43:31.825Z,10.10
2018-03-15T09:46:00.688Z,10.13
2018-03-15T09:48:29.584Z,9.97
2018-03-15T09:50:58.432Z,9.90
2018-03-15T09:53:27.375Z,9.70
2018-03-15T09:55:56.271Z,9.80
2018-03-15T09:58:25.131Z,8.87
2018-03-15T10:00:53.991Z,9.73
2018-03-15T10:03:23.187Z,9.27
2018-03-15T10:05:52.088Z,9.43
2018-03-15T10:08:20.887Z,9.60
2018-03-15T10:10:49.748Z,9.10
2018-03-15T10:13:21.208Z,9.33
2018-03-15T10:15:50.186Z,9.10
2018-03-15T10:18:19.040Z,9.40
2018-03-15T10:20:47.894Z,9.17
2018-03-15T10:23:16.764Z,9.60
2018-03-15T10:25:45.647Z,9.27
2018-03-15T10:28:14.564Z,8.60
2018-03-15T10:30:43.506Z,9.17
2018-03-15T10:33:18.299Z,9.40
2018-03-15T10:35:47.163Z,9.07
2018-03-15T10:38:16.022Z,9.60
2018-03-15T10:40:44.878Z,9.90
2018-03-15T10:43:13.715Z,9.43
2018-03-15T10:45:42.625Z,10.10
2018-03-15T10:48:11.481Z,9.77
2018-03-15T10:50:40.335Z,9.73
2018-03-15T10:53:09.228Z,10.67
2018-03-15T10:55:38.089Z,9.57
2018-03-15T10:58:06.971Z,9.50
2018-03-15T11:00:41.643Z,9.57
2018-03-15T11:03:16.311Z,9.37
2018-03-15T11:05:46.070Z,9.50
2018-03-15T11:08:21.585Z,9.13
2018-03-15T11:10:50.438Z,9.77
2018-03-15T11:13:19.282Z,9.70
2018-03-15T11:15:48.243Z,9.90
2018-03-15T11:18:17.094Z,9.57
2018-03-15T11:20:45.994Z,10.10
2018-03-15T11:23:14.848Z,9.27
2018-03-15T11:25:43.719Z,9.77
2018-03-15T11:28:13.222Z,9.70
2018-03-15T11:30:42.080Z,9.57
2018-03-15T11:33:10.928Z,9.47
2018-03-15T11:35:40.114Z,9.67
2018-03-15T11:38:08.959Z,8.57
2018-03-15T11:40:38.011Z,9.20
2018-03-15T11:43:06.879Z,8.13
2018-03-15T11:45:35.826Z,7.70
2018-03-15T11:48:05.072Z,8.33
2018-03-15T11:50:33.941Z,8.40
2018-03-15T11:53:02.807Z,7.70
2018-03-15T11:55:31.790Z,7.33
2018-03-15T11:58:00.698Z,7.90
2018-03-15T12:00:29.604Z,8.20
2018-03-15T12:02:59.458Z,7.97
2018-03-15T12:05:28.502Z,7.93
2018-03-15T12:07:57.378Z,8.10
2018-03-15T12:10:26.210Z,7.73
2018-03-15T12:12:57.816Z,7.27
2018-03-15T12:15:26.676Z,7.50
2018-03-15T12:17:55.535Z,7.23
2018-03-15T12:20:24.492Z,8.00
2018-03-15T12:22:53.332Z,7.67
2018-03-15T12:25:22.353Z,8.67
2018-03-15T12:27:51.673Z,8.67
2018-03-15T12:30:20.542Z,9.03
2018-03-15T12:32:49.381Z,8.50
2018-03-15T12:35:18.254Z,8.23
2018-03-15T12:37:47.190Z,8.77
2018-03-15T12:40:16.413Z,8.70
2018-03-15T12:42:45.247Z,8.27
2018-03-15T12:45:14.105Z,9.10
2018-03-15T12:47:43.012Z,8.87
2018-03-15T12:50:11.855Z,9.10
2018-03-15T12:52:41.024Z,9.33
2018-03-15T12:55:09.990Z,9.77
2018-03-15T12:57:38.838Z,8.93
2018-03-15T13:00:07.719Z,9.13
2018-03-15T13:02:36.599Z,9.23
2018-03-15T13:05:05.695Z,9.43
2018-03-15T13:07:34.574Z,9.33
2018-03-15T13:10:03.456Z,9.70
2018-03-15T13:12:33.129Z,9.80
2018-03-15T13:15:02.008Z,9.80
2018-03-15T13:17:30.870Z,9.63
2018-03-15T13:19:59.823Z,11.00
2018-03-15T13:22:28.740Z,10.30
2018-03-15T13:24:57.808Z,9.77
2018-03-15T13:27:26.688Z,9.93
2018-03-15T13:29:55.535Z,9.67
2018-03-15T13:32:24.988Z,9.77
2018-03-15T13:34:53.817Z,9.50
2018-03-15T13:37:22.690Z,9.63
2018-03-15T13:39:51.591Z,9.17
2018-03-15T13:42:20.455Z,9.77
2018-03-15T13:44:49.314Z,10.40
2018-03-15T13:47:18.243Z,10.00
2018-03-15T13:49:47.112Z,10.00
2018-03-15T13:52:15.993Z,10.53
2018-03-15T13:54:45.183Z,10.20
2018-03-15T13:57:14.148Z,10.33
2018-03-15T13:59:44.604Z,10.23
2018-03-15T14:02:17.499Z,10.60
2018-03-15T14:04:46.377Z,9.73
2018-03-15T14:07:15.274Z,10.33
2018-03-15T14:09:44.127Z,10.70
2018-03-15T14:12:13.020Z,10.50
2018-03-15T14:14:42.391Z,9.77
2018-03-15T14:17:11.262Z,10.50
2018-03-15T14:19:40.153Z,9.83
2018-03-15T14:22:09.231Z,10.07
2018-03-15T14:24:38.056Z,10.03
2018-03-15T14:27:06.919Z,9.90
2018-03-15T14:29:35.845Z,9.70
2018-03-15T14:32:04.663Z,10.00
2018-03-15T14:34:33.566Z,10.40
2018-03-15T14:37:02.410Z,9.57
2018-03-15T14:39:31.270Z,9.37
2018-03-15T14:42:00.178Z,10.10
2018-03-15T14:44:29.057Z,10.70
2018-03-15T14:46:57.922Z,10.13
2018-03-15T14:49:30.817Z,9.90
2018-03-15T14:51:59.951Z,10.83
2018-03-15T14:54:29.140Z,9.90
2018-03-15T14:56:58.007Z,9.90
2018-03-15T14:59:26.970Z,9.70
2018-03-15T15:01:57.329Z,10.63
2018-03-15T15:04:26.183Z,10.50
2018-03-15T15:06:55.036Z,10.40
2018-03-15T15:09:24.399Z,9.37
2018-03-15T15:11:54.021Z,9.63
2018-03-15T15:14:22.890Z,10.50
2018-03-15T15:16:52.460Z,10.27
2018-03-15T15:19:21.306Z,10.33
2018-03-15T15:21:50.183Z,12.30
2018-03-15T15:24:19.051Z,12.33
2018-03-15T15:26:48.047Z,13.50
2018-03-15T15:29:16.907Z,13.53
2018-03-15T15:31:45.777Z,12.93
2018-03-15T15:34:15.607Z,14.70
2018-03-15T15:36:44.452Z,14.53
2018-03-15T15:39:13.324Z,14.77
2018-03-15T15:41:42.363Z,14.33
2018-03-15T15:44:11.219Z,13.83
2018-03-15T15:46:40.076Z,13.33
2018-03-15T15:49:08.995Z,16.07
2018-03-15T15:51:37.851Z,16.30
2018-03-15T15:54:06.829Z,16.87
2018-03-15T15:56:37.143Z,13.10
2018-03-15T15:59:06.028Z,13.07
2018-03-15T16:01:34.916Z,14.70
2018-03-15T16:04:03.802Z,13.83
2018-03-15T16:06:32.659Z,12.17
2018-03-15T16:09:01.601Z,14.47
2018-03-15T16:11:30.484Z,13.80
2018-03-15T16:14:00.382Z,16.37
2018-03-15T16:16:29.306Z,15.23
2018-03-15T16:18:58.181Z,16.33
2018-03-15T16:21:27.060Z,14.50
2018-03-15T16:23:56.016Z,17.37
2018-03-15T16:26:24.880Z,15.23
2018-03-15T16:28:53.821Z,13.47
2018-03-15T16:31:22.843Z,15.27
2018-03-15T16:33:51.703Z,16.17
2018-03-15T16:36:20.568Z,16.13
2018-03-15T16:38:50.944Z,17.73
2018-03-15T16:41:19.840Z,16.80
2018-03-15T16:43:48.682Z,16.53
2018-03-15T16:46:17.830Z,16.20
2018-03-15T16:48:46.699Z,16.60
2018-03-15T16:51:15.576Z,18.63
2018-03-15T16:53:44.774Z,19.33
2018-03-15T16:56:13.647Z,19.73
2018-03-15T16:58:44.323Z,16.37
2018-03-15T17:01:13.364Z,18.20
2018-03-15T17:03:42.264Z,17.73
2018-03-15T17:06:11.169Z,15.37
2018-03-15T17:08:40.035Z,16.73
2018-03-15T17:11:08.906Z,14.93
2018-03-15T17:13:37.835Z,16.60
2018-03-15T17:16:07.398Z,15.67
2018-03-15T17:18:36.267Z,16.93
2018-03-15T17:21:05.163Z,15.83
2018-03-15T17:23:34.011Z,16.80
2018-03-15T17:26:02.887Z,17.83
2018-03-15T17:28:31.821Z,17.00
2018-03-15T17:31:00.683Z,16.73
2018-03-15T17:33:29.559Z,15.27
2018-03-15T17:35:59.560Z,16.13
2018-03-15T17:38:28.393Z,17.13
2018-03-15T17:40:58.228Z,18.30
2018-03-15T17:43:27.107Z,21.90
2018-03-15T17:45:57.003Z,20.20
2018-03-15T17:48:25.891Z,19.70
2018-03-15T17:50:54.767Z,17.20
2018-03-15T17:53:23.890Z,16.17
2018-03-15T17:55:52.785Z,17.13
2018-03-15T17:58:22.841Z,17.67
2018-03-15T18:00:52.564Z,20.10
2018-03-15T18:03:21.447Z,18.97
2018-03-15T18:05:50.376Z,17.13
2018-03-15T18:08:20.115Z,16.50
2018-03-15T18:10:48.975Z,17.53
2018-03-15T18:13:17.870Z,18.30
2018-03-15T18:15:47.378Z,19.80
2018-03-15T18:18:16.268Z,18.77
2018-03-15T18:20:45.128Z,22.77
2018-03-15T18:23:13.995Z,21.83
2018-03-15T18:25:42.899Z,25.97
2018-03-15T18:28:11.815Z,25.63
2018-03-15T18:30:40.990Z,26.27
2018-03-15T18:33:09.826Z,27.40
2018-03-15T18:35:38.699Z,22.50
2018-03-15T18:38:07.635Z,20.00
2018-03-15T18:40:37.401Z,28.67
2018-03-15T18:43:06.273Z,16.63
2018-03-15T18:45:36.186Z,21.33
2018-03-15T18:48:05.082Z,20.03
2018-03-15T18:50:33.955Z,22.23
2018-03-15T18:53:03.654Z,22.27
2018-03-15T18:55:32.752Z,25.70
2018-03-15T18:58:01.618Z,25.97
2018-03-15T19:00:30.495Z,27.17
2018-03-15T19:03:00.109Z,26.17
2018-03-15T19:05:28.966Z,30.60
2018-03-15T19:07:57.886Z,29.77
2018-03-15T19:10:27.404Z,27.07
2018-03-15T19:12:57.729Z,27.00
2018-03-15T19:15:26.633Z,27.37
2018-03-15T19:17:55.512Z,26.13
2018-03-15T19:20:24.365Z,28.57
2018-03-15T19:22:53.290Z,29.17
2018-03-15T19:25:22.161Z,26.07
2018-03-15T19:27:51.206Z,18.47
2018-03-15T19:30:21.147Z,17.97
2018-03-15T19:32:50.063Z,18.07
2018-03-15T19:35:18.931Z,19.90
2018-03-15T19:37:48.125Z,18.33
2018-03-15T19:40:17.820Z,19.07
2018-03-15T19:42:46.750Z,21.87
2018-03-15T19:45:15.732Z,22.00
2018-03-15T19:47:44.589Z,20.97
2018-03-15T19:50:14.115Z,23.43
2018-03-15T19:52:42.985Z,24.40
2018-03-15T19:55:11.860Z,21.50
2018-03-15T19:57:40.925Z,20.90
2018-03-15T20:00:09.780Z,20.30
2018-03-15T20:02:39.631Z,21.93
2018-03-15T20:05:08.558Z,20.13
2018-03-15T20:07:37.444Z,19.47
2018-03-15T20:10:06.475Z,22.60
2018-03-15T20:12:35.341Z,17.77
2018-03-15T20:15:05.255Z,16.80
2018-03-15T20:17:34.130Z,16.17
2018-03-15T20:20:03.022Z,17.90
2018-03-15T20:22:39.690Z,18.70
2018-03-15T20:25:08.539Z,17.53
2018-03-15T20:27:43.128Z,16.40
2018-03-15T20:30:11.996Z,19.10
2018-03-15T20:32:46.873Z,18.67
2018-03-15T20:35:15.763Z,16.70
2018-03-15T20:37:44.613Z,16.90
2018-03-15T20:40:19.450Z,17.43
2018-03-15T20:42:48.379Z,19.87
2018-03-15T20:45:23.027Z,19.20
2018-03-15T20:47:57.574Z,17.87
2018-03-15T20:50:26.592Z,17.50
2018-03-15T20:52:55.480Z,18.07
2018-03-15T20:55:24.383Z,17.43
2018-03-15T20:57:54.120Z,17.50
2018-03-15T21:00:23.010Z,18.93
2018-03-15T21:02:51.934Z,19.60
2018-03-15T21:05:20.937Z,17.63
2018-03-15T21:07:49.820Z,16.77
2018-03-15T21:10:18.680Z,16.37
2018-03-15T21:12:47.588Z,16.73
2018-03-15T21:15:18.708Z,16.70
2018-03-15T21:17:47.555Z,15.67
2018-03-15T21:20:16.416Z,15.10
2018-03-15T21:22:45.347Z,16.90
2018-03-15T21:25:14.203Z,15.23
2018-03-15T21:27:43.055Z,14.77
2018-03-15T21:30:12.364Z,16.17
2018-03-15T21:32:41.219Z,16.97
2018-03-15T21:35:10.043Z,16.10
2018-03-15T21:37:38.942Z,15.90
2018-03-15T21:40:07.805Z,16.07
2018-03-15T21:42:37.230Z,15.73
2018-03-15T21:45:06.077Z,17.53
2018-03-15T21:47:34.943Z,17.20
2018-03-15T21:50:03.848Z,20.70
2018-03-15T21:52:32.721Z,21.70
2018-03-15T21:55:02.528Z,17.50
2018-03-15T21:57:31.395Z,16.40
2018-03-15T22:00:00.247Z,16.80
2018-03-15T22:02:29.502Z,13.83
2018-03-15T22:04:58.416Z,13.87
2018-03-15T22:07:27.277Z,12.00
2018-03-15T22:09:56.249Z,11.70
2018-03-15T22:12:25.186Z,10.50
2018-03-15T22:14:53.986Z,8.93
2018-03-15T22:17:23.211Z,10.57
2018-03-15T22:19:52.070Z,9.20
2018-03-15T22:22:20.936Z,8.90
2018-03-15T22:24:50.147Z,8.63
2018-03-15T22:27:19.115Z,8.07
2018-03-15T22:29:47.977Z,7.30
2018-03-15T22:32:17.399Z,6.73
2018-03-15T22:34:46.253Z,6.30
2018-03-15T22:37:15.147Z,5.83
2018-03-15T22:39:44.021Z,5.90
2018-03-15T22:42:13.171Z,6.30
2018-03-15T22:44:42.214Z,6.27
2018-03-15T22:47:11.074Z,5.33
2018-03-15T22:49:41.234Z,5.03
2018-03-15T22:52:10.043Z,5.20
2018-03-15T22:54:38.935Z,5.40
2018-03-15T22:57:07.787Z,5.93
2018-03-15T22:59:36.704Z,5.37
2018-03-15T23:02:05.559Z,5.60
2018-03-15T23:04:34.614Z,4.90
2018-03-15T23:07:04.117Z,5.50
2018-03-15T23:09:32.965Z,5.10
2018-03-15T23:12:01.821Z,5.03
2018-03-15T23:14:32.032Z,5.93
2018-03-15T23:17:00.916Z,4.67
2018-03-15T23:19:29.762Z,5.57
2018-03-15T23:21:58.999Z,5.00
2018-03-15T23:24:28.331Z,4.90
2018-03-15T23:26:57.206Z,4.90
2018-03-15T23:29:26.110Z,5.13
2018-03-15T23:31:54.972Z,5.40
2018-03-15T23:34:24.395Z,5.60
2018-03-15T23:36:53.715Z,5.33
2018-03-15T23:39:22.577Z,5.80
2018-03-15T23:41:51.447Z,6.50
2018-03-15T23:44:20.330Z,6.13
2018-03-15T23:46:49.914Z,6.20
2018-03-15T23:49:19.171Z,5.53
2018-03-15T23:51:48.014Z,6.33
2018-03-15T23:54:16.871Z,6.50
2018-03-15T23:56:45.771Z,6.30
2018-03-15T23:59:15.310Z,6.40
